createdAt,value
2022-12-11T00:00:47.353Z,27.23
2022-12-11T00:03:16.095Z,26.77
2022-12-11T00:05:44.152Z,25.57
2022-12-11T00:08:11.927Z,23.37
2022-12-11T00:10:39.160Z,27.77
2022-12-11T00:13:05.838Z,24.13
2022-12-11T00:15:32.562Z,22.53
2022-12-11T00:17:59.270Z,23.47
2022-12-11T00:20:25.978Z,23.07
2022-12-11T00:22:52.678Z,23.63
2022-12-11T00:25:19.355Z,21.90
2022-12-11T00:27:47.244Z,20.83
2022-12-11T00:30:14.949Z,23.73
2022-12-11T00:32:42.163Z,20.60
2022-12-11T00:35:10.206Z,22.90
2022-12-11T00:37:37.142Z,24.17
2022-12-11T00:40:04.263Z,24.23
2022-12-11T00:42:31.103Z,25.03
2022-12-11T00:44:57.855Z,25.47
2022-12-11T00:47:24.524Z,25.47
2022-12-11T00:49:51.232Z,26.73
2022-12-11T00:52:18.157Z,28.60
2022-12-11T00:54:45.437Z,29.20
2022-12-11T00:57:12.180Z,30.27
2022-12-11T00:59:39.075Z,32.37
2022-12-11T01:02:05.785Z,28.17
2022-12-11T01:04:34.973Z,31.30
2022-12-11T01:07:01.794Z,32.50
2022-12-11T01:09:47.332Z,33.40
2022-12-11T01:12:14.076Z,30.83
2022-12-11T01:14:40.786Z,31.43
2022-12-11T01:17:07.537Z,33.20
2022-12-11T01:19:34.263Z,33.00
2022-12-11T01:22:00.968Z,31.97
2022-12-11T01:24:27.658Z,33.23
2022-12-11T01:26:54.423Z,32.17
2022-12-11T01:29:21.243Z,28.77
2022-12-11T01:31:47.978Z,34.43
2022-12-11T01:34:14.648Z,33.13
2022-12-11T01:36:41.416Z,36.23
2022-12-11T01:39:08.572Z,32.37
2022-12-11T01:41:35.433Z,33.17
2022-12-11T01:44:06.320Z,35.73
2022-12-11T01:46:35.415Z,30.67
2022-12-11T01:49:05.815Z,29.43
2022-12-11T01:51:36.225Z,34.07
2022-12-11T01:54:08.922Z,29.13
2022-12-11T01:56:37.031Z,27.90
2022-12-11T01:59:07.401Z,26.00
2022-12-11T02:01:43.007Z,30.63
2022-12-11T02:04:11.310Z,28.73
2022-12-11T02:06:41.301Z,23.53
2022-12-11T02:09:12.067Z,25.83
2022-12-11T02:11:53.250Z,22.10
2022-12-11T02:14:43.908Z,23.07
2022-12-11T02:17:21.217Z,21.97
2022-12-11T02:20:03.821Z,31.60
2022-12-11T02:22:50.205Z,19.17
2022-12-11T02:25:41.085Z,22.77
2022-12-11T02:28:21.060Z,23.07
2022-12-11T02:30:54.136Z,29.23
2022-12-11T02:33:26.598Z,28.13
2022-12-11T02:35:54.267Z,26.37
2022-12-11T02:38:30.489Z,31.33
2022-12-11T02:40:59.271Z,27.17
2022-12-11T02:43:27.390Z,27.13
2022-12-11T02:45:54.820Z,25.73
2022-12-11T02:48:24.310Z,26.30
2022-12-11T02:50:55.451Z,27.50
2022-12-11T02:53:26.441Z,26.97
2022-12-11T02:56:02.153Z,26.63
2022-12-11T02:58:32.542Z,19.83
2022-12-11T03:00:59.571Z,27.73
2022-12-11T03:03:28.847Z,22.20
2022-12-11T03:05:55.732Z,28.60
2022-12-11T03:08:22.542Z,28.10
2022-12-11T03:10:49.322Z,24.83
2022-12-11T03:13:20.588Z,28.07
2022-12-11T03:16:11.211Z,26.67
2022-12-11T03:19:13.156Z,20.20
2022-12-11T03:21:47.730Z,22.37
2022-12-11T03:24:35.100Z,18.97
2022-12-11T03:27:11.661Z,22.47
2022-12-11T03:29:47.412Z,25.77
2022-12-11T03:32:20.040Z,25.20
2022-12-11T03:35:24.822Z,21.03
2022-12-11T03:37:54.884Z,22.67
2022-12-11T03:40:23.811Z,22.03
2022-12-11T03:42:52.595Z,20.53
2022-12-11T03:45:22.230Z,21.67
2022-12-11T03:47:50.868Z,20.23
2022-12-11T03:50:20.206Z,22.80
2022-12-11T03:52:48.190Z,25.33
2022-12-11T03:55:16.870Z,26.40
2022-12-11T03:57:43.794Z,24.87
2022-12-11T04:00:17.242Z,25.37
2022-12-11T04:02:44.788Z,28.33
2022-12-11T04:05:12.583Z,26.33
2022-12-11T04:07:39.473Z,26.37
2022-12-11T04:10:06.515Z,26.43
2022-12-11T04:12:33.309Z,23.10
2022-12-11T04:15:02.989Z,25.80
2022-12-11T04:17:54.339Z,26.00
2022-12-11T04:20:40.390Z,24.43
2022-12-11T04:23:32.030Z,25.77
2022-12-11T04:26:15.136Z,26.30
2022-12-11T04:28:44.097Z,26.47
2022-12-11T04:31:22.058Z,25.17
2022-12-11T04:33:49.077Z,24.63
2022-12-11T04:36:16.310Z,27.97
2022-12-11T04:38:43.023Z,25.77
2022-12-11T04:41:14.629Z,26.37
2022-12-11T04:43:41.720Z,27.37
2022-12-11T04:46:12.360Z,25.47
2022-12-11T04:48:39.864Z,26.43
2022-12-11T04:51:07.204Z,29.40
2022-12-11T04:53:34.262Z,25.40
2022-12-11T04:56:01.065Z,26.13
2022-12-11T04:58:28.359Z,25.07
2022-12-11T05:00:54.997Z,20.57
2022-12-11T05:03:22.134Z,26.83
2022-12-11T05:05:50.667Z,25.20
2022-12-11T05:08:18.513Z,26.57
2022-12-11T05:10:49.924Z,25.17
2022-12-11T05:13:16.815Z,25.73
2022-12-11T05:15:43.535Z,22.43
2022-12-11T05:18:10.200Z,24.30
2022-12-11T05:20:36.916Z,23.63
2022-12-11T05:23:03.739Z,26.30
2022-12-11T05:25:30.515Z,24.33
2022-12-11T05:27:57.415Z,24.17
2022-12-11T05:30:24.167Z,23.87
2022-12-11T05:32:50.907Z,25.63
2022-12-11T05:35:17.642Z,21.87
2022-12-11T05:37:44.366Z,25.43
2022-12-11T05:40:12.765Z,25.83
2022-12-11T05:42:39.491Z,25.57
2022-12-11T05:45:06.959Z,26.10
2022-12-11T05:47:33.596Z,25.77
2022-12-11T05:50:00.262Z,24.73
2022-12-11T05:52:27.207Z,24.47
2022-12-11T05:54:53.867Z,27.67
2022-12-11T05:57:20.566Z,22.60
2022-12-11T05:59:47.357Z,20.27
2022-12-11T06:02:14.201Z,24.43
2022-12-11T06:04:41.011Z,23.53
2022-12-11T06:07:07.689Z,23.60
2022-12-11T06:09:34.409Z,24.03
2022-12-11T06:12:01.077Z,23.83
2022-12-11T06:14:27.849Z,24.53
2022-12-11T06:16:54.591Z,25.10
2022-12-11T06:19:21.355Z,23.77
2022-12-11T06:21:48.897Z,23.03
2022-12-11T06:24:15.637Z,23.30
2022-12-11T06:26:42.373Z,24.10
2022-12-11T06:29:12.769Z,24.23
2022-12-11T06:31:40.417Z,24.30
2022-12-11T06:34:07.215Z,21.07
2022-12-11T06:36:34.014Z,25.77
2022-12-11T06:39:00.888Z,23.60
2022-12-11T06:41:27.614Z,23.53
2022-12-11T06:43:54.277Z,23.23
2022-12-11T06:46:21.384Z,25.37
2022-12-11T06:48:48.883Z,24.23
2022-12-11T06:51:18.214Z,23.73
2022-12-11T06:53:45.286Z,25.17
2022-12-11T06:56:15.112Z,24.20
2022-12-11T06:58:43.271Z,25.03
2022-12-11T07:01:22.475Z,24.20
2022-12-11T07:03:49.949Z,22.57
2022-12-11T07:06:16.640Z,23.70
2022-12-11T07:08:43.667Z,24.70
2022-12-11T07:11:13.336Z,24.20
2022-12-11T07:13:42.205Z,25.63
2022-12-11T07:16:13.427Z,23.07
2022-12-11T07:18:43.937Z,21.47
2022-12-11T07:21:13.290Z,23.03
2022-12-11T07:23:40.714Z,23.00
2022-12-11T07:26:10.516Z,23.67
2022-12-11T07:28:37.630Z,24.37
2022-12-11T07:31:15.848Z,23.50
2022-12-11T07:33:43.107Z,23.10
2022-12-11T07:36:12.054Z,23.70
2022-12-11T07:38:39.193Z,24.53
2022-12-11T07:41:09.422Z,22.93
2022-12-11T07:43:36.558Z,23.57
2022-12-11T07:46:06.403Z,25.20
2022-12-11T07:48:35.717Z,23.93
2022-12-11T07:51:17.957Z,23.63
2022-12-11T07:53:46.647Z,24.27
2022-12-11T07:56:13.565Z,24.40
2022-12-11T07:58:40.290Z,25.47
2022-12-11T08:01:18.891Z,25.33
2022-12-11T08:03:46.027Z,22.73
2022-12-11T08:06:13.149Z,25.60
2022-12-11T08:08:41.428Z,26.40
2022-12-11T08:11:11.374Z,24.90
2022-12-11T08:13:40.070Z,25.43
2022-12-11T08:16:09.351Z,26.60
2022-12-11T08:18:37.554Z,28.03
2022-12-11T08:21:08.277Z,24.83
2022-12-11T08:23:35.156Z,24.20
2022-12-11T08:26:14.853Z,25.63
2022-12-11T08:28:41.712Z,24.20
2022-12-11T08:31:09.740Z,25.50
2022-12-11T08:33:37.893Z,25.47
2022-12-11T08:36:07.025Z,25.33
2022-12-11T08:38:34.351Z,24.97
2022-12-11T08:41:12.253Z,27.17
2022-12-11T08:43:39.436Z,24.67
2022-12-11T08:46:07.136Z,26.77
2022-12-11T08:48:35.022Z,25.60
2022-12-11T08:51:03.162Z,28.20
2022-12-11T08:53:30.570Z,26.20
2022-12-11T08:56:09.756Z,28.57
2022-12-11T08:58:36.743Z,28.70
2022-12-11T09:01:12.323Z,27.23
2022-12-11T09:03:39.996Z,29.07
2022-12-11T09:06:12.550Z,29.53
2022-12-11T09:08:39.416Z,24.30
2022-12-11T09:11:11.427Z,27.77
2022-12-11T09:13:39.258Z,27.57
2022-12-11T09:16:08.149Z,28.03
2022-12-11T09:18:35.390Z,26.80
2022-12-11T09:21:11.312Z,26.60
2022-12-11T09:23:38.134Z,27.80
2022-12-11T09:26:13.328Z,27.20
2022-12-11T09:28:44.385Z,28.53
2022-12-11T09:31:17.860Z,26.83
2022-12-11T09:33:45.488Z,26.17
2022-12-11T09:36:12.863Z,27.97
2022-12-11T09:38:39.645Z,28.27
2022-12-11T09:41:23.291Z,27.70
2022-12-11T09:44:01.205Z,27.47
2022-12-11T09:46:33.772Z,28.40
2022-12-11T09:49:02.626Z,20.73
2022-12-11T09:51:55.574Z,25.70
2022-12-11T09:54:22.238Z,24.67
2022-12-11T09:56:55.965Z,25.07
2022-12-11T09:59:36.052Z,29.30
2022-12-11T10:02:17.593Z,26.57
2022-12-11T10:04:57.461Z,26.20
2022-12-11T10:08:05.967Z,24.60
2022-12-11T10:10:57.499Z,25.07
2022-12-11T10:13:48.677Z,24.37
2022-12-11T10:16:20.962Z,26.97
2022-12-11T10:18:49.089Z,24.83
2022-12-11T10:21:18.144Z,24.37
2022-12-11T10:24:00.725Z,25.40
2022-12-11T10:26:29.258Z,25.23
2022-12-11T10:29:02.902Z,24.57
2022-12-11T10:31:43.490Z,26.27
2022-12-11T10:34:15.820Z,28.17
2022-12-11T10:36:43.396Z,22.20
2022-12-11T10:39:16.701Z,26.10
2022-12-11T10:41:45.950Z,22.90
2022-12-11T10:44:17.449Z,23.73
2022-12-11T10:46:45.681Z,25.23
2022-12-11T10:49:30.249Z,21.87
2022-12-11T10:52:01.581Z,24.10
2022-12-11T10:54:33.460Z,20.40
2022-12-11T10:57:03.465Z,24.67
2022-12-11T10:59:38.742Z,23.93
2022-12-11T11:02:15.737Z,24.37
2022-12-11T11:04:44.844Z,25.00
2022-12-11T11:07:25.549Z,24.43
2022-12-11T11:10:24.083Z,23.93
2022-12-11T11:12:55.479Z,22.00
2022-12-11T11:15:31.481Z,23.50
2022-12-11T11:18:11.986Z,23.00
2022-12-11T11:20:47.590Z,22.80
2022-12-11T11:23:17.086Z,22.23
2022-12-11T11:25:54.352Z,22.67
2022-12-11T11:28:31.430Z,21.63
2022-12-11T11:31:03.644Z,22.33
2022-12-11T11:33:34.174Z,22.07
2022-12-11T11:36:20.857Z,23.10
2022-12-11T11:39:26.846Z,23.53
2022-12-11T11:42:10.905Z,23.00
2022-12-11T11:45:16.420Z,22.63
2022-12-11T11:48:11.091Z,21.63
2022-12-11T11:50:45.345Z,24.23
2022-12-11T11:53:41.789Z,22.57
2022-12-11T11:56:21.508Z,23.10
2022-12-11T11:58:51.365Z,21.13
2022-12-11T12:01:20.208Z,23.90
2022-12-11T12:03:49.362Z,22.10
2022-12-11T12:06:50.680Z,21.67
2022-12-11T12:09:24.334Z,22.17
2022-12-11T12:12:45.554Z,22.10
2022-12-11T12:15:38.569Z,21.43
2022-12-11T12:18:05.473Z,22.80
2022-12-11T12:20:55.391Z,23.23
2022-12-11T12:23:49.735Z,21.30
2022-12-11T12:26:29.092Z,21.00
2022-12-11T12:29:20.994Z,20.80
2022-12-11T12:32:02.297Z,23.37
2022-12-11T12:34:56.978Z,22.87
2022-12-11T12:37:40.158Z,20.57
2022-12-11T12:40:15.753Z,20.33
2022-12-11T12:42:55.408Z,21.20
2022-12-11T12:45:29.722Z,20.63
2022-12-11T12:47:57.354Z,20.20
2022-12-11T12:50:37.429Z,19.47
2022-12-11T12:53:07.238Z,19.87
2022-12-11T12:55:35.960Z,20.37
2022-12-11T12:58:06.756Z,21.30
2022-12-11T13:00:43.953Z,20.27
2022-12-11T13:03:30.129Z,19.57
2022-12-11T13:06:08.356Z,19.87
2022-12-11T13:08:49.129Z,20.30
2022-12-11T13:11:18.599Z,20.70
2022-12-11T13:14:09.993Z,20.83
2022-12-11T13:16:41.247Z,19.70
2022-12-11T13:19:18.644Z,20.10
2022-12-11T13:21:57.050Z,21.80
2022-12-11T13:24:23.935Z,19.30
2022-12-11T13:26:51.727Z,19.13
2022-12-11T13:29:33.704Z,21.70
2022-12-11T13:32:08.927Z,20.47
2022-12-11T13:34:40.090Z,21.67
2022-12-11T13:37:21.466Z,22.00
2022-12-11T13:39:48.383Z,19.87
2022-12-11T13:42:31.536Z,18.83
2022-12-11T13:44:58.959Z,22.97
2022-12-11T13:47:26.537Z,21.20
2022-12-11T13:50:10.690Z,22.23
2022-12-11T13:52:37.700Z,22.23
2022-12-11T13:55:21.990Z,22.33
2022-12-11T13:57:49.316Z,23.23
2022-12-11T14:00:35.975Z,19.77
2022-12-11T14:03:07.808Z,21.53
2022-12-11T14:05:36.048Z,23.30
2022-12-11T14:08:10.530Z,26.20
2022-12-11T14:10:39.271Z,20.83
2022-12-11T14:13:23.633Z,22.80
2022-12-11T14:15:51.019Z,24.27
2022-12-11T14:18:24.065Z,20.40
2022-12-11T14:21:04.667Z,21.83
2022-12-11T14:23:34.209Z,17.60
2022-12-11T14:26:17.858Z,22.60
2022-12-11T14:28:45.122Z,23.17
2022-12-11T14:31:16.887Z,23.40
2022-12-11T14:33:48.822Z,20.13
2022-12-11T14:36:18.378Z,21.97
2022-12-11T14:38:51.981Z,22.33
2022-12-11T14:42:10.214Z,22.37
2022-12-11T14:44:55.149Z,21.53
2022-12-11T14:47:29.028Z,24.17
2022-12-11T14:50:10.181Z,21.20
2022-12-11T14:52:42.687Z,22.10
2022-12-11T14:55:19.397Z,20.60
2022-12-11T14:57:50.094Z,21.37
2022-12-11T15:00:27.228Z,23.07
2022-12-11T15:03:07.815Z,22.40
2022-12-11T15:05:40.661Z,22.17
2022-12-11T15:08:11.027Z,24.40
2022-12-11T15:10:42.970Z,21.23
2022-12-11T15:13:10.755Z,23.10
2022-12-11T15:15:46.692Z,22.83
2022-12-11T15:18:23.080Z,21.33
2022-12-11T15:21:02.254Z,25.70
2022-12-11T15:23:30.054Z,23.60
2022-12-11T15:26:02.244Z,25.87
2022-12-11T15:28:35.979Z,22.07
2022-12-11T15:31:06.458Z,22.03
2022-12-11T15:33:34.686Z,25.53
2022-12-11T15:36:06.030Z,23.27
2022-12-11T15:38:42.152Z,23.63
2022-12-11T15:41:16.265Z,23.37
2022-12-11T15:43:44.782Z,24.73
2022-12-11T15:46:11.696Z,25.67
2022-12-11T15:48:38.481Z,26.13
2022-12-11T15:51:05.555Z,25.67
2022-12-11T15:53:32.560Z,24.67
2022-12-11T15:56:00.368Z,24.60
2022-12-11T15:58:27.533Z,25.67
2022-12-11T16:00:54.879Z,24.77
2022-12-11T16:03:23.582Z,28.00
2022-12-11T16:05:52.168Z,27.80
2022-12-11T16:08:21.995Z,25.10
2022-12-11T16:10:49.517Z,25.30
2022-12-11T16:13:16.442Z,26.43
2022-12-11T16:15:46.229Z,22.77
2022-12-11T16:18:20.283Z,25.00
2022-12-11T16:20:47.477Z,26.80
2022-12-11T16:23:16.385Z,26.60
2022-12-11T16:25:45.000Z,26.77
2022-12-11T16:28:14.470Z,27.40
2022-12-11T16:30:43.644Z,25.03
2022-12-11T16:33:13.430Z,27.63
2022-12-11T16:35:42.023Z,26.00
2022-12-11T16:38:10.207Z,26.03
2022-12-11T16:40:37.779Z,25.40
2022-12-11T16:45:56.774Z,24.97
2022-12-11T16:48:23.648Z,27.63
2022-12-11T16:50:53.985Z,24.73
2022-12-11T16:53:22.152Z,28.77
2022-12-11T16:55:48.999Z,26.50
2022-12-11T16:58:19.896Z,24.90
2022-12-11T17:00:48.305Z,26.10
2022-12-11T17:03:15.579Z,25.27
2022-12-11T17:05:43.574Z,25.33
2022-12-11T17:08:10.885Z,26.27
2022-12-11T17:10:42.144Z,23.37
2022-12-11T17:13:08.950Z,27.17
2022-12-11T17:15:40.406Z,25.83
2022-12-11T17:18:07.359Z,26.80
2022-12-11T17:20:34.558Z,31.13
2022-12-11T17:23:01.673Z,28.17
2022-12-11T17:25:28.419Z,25.33
2022-12-11T17:27:55.588Z,25.77
2022-12-11T17:30:22.344Z,24.37
2022-12-11T17:32:49.291Z,25.17
2022-12-11T17:35:16.225Z,25.43
2022-12-11T17:37:43.068Z,25.07
2022-12-11T17:40:10.448Z,25.27
2022-12-11T17:42:37.241Z,25.50
2022-12-11T17:45:04.388Z,24.97
2022-12-11T17:47:31.940Z,26.53
2022-12-11T17:49:59.042Z,27.20
2022-12-11T17:52:30.942Z,26.73
2022-12-11T17:55:00.963Z,26.10
2022-12-11T17:57:27.713Z,26.97
2022-12-11T17:59:55.452Z,26.17
2022-12-11T18:02:22.483Z,28.23
2022-12-11T18:04:49.874Z,26.10
2022-12-11T18:07:17.271Z,26.23
2022-12-11T18:09:44.288Z,28.07
2022-12-11T18:12:11.189Z,25.07
2022-12-11T18:14:38.284Z,26.53
2022-12-11T18:17:05.115Z,25.37
2022-12-11T18:19:32.013Z,27.57
2022-12-11T18:21:58.841Z,31.57
2022-12-11T18:24:32.177Z,28.40
2022-12-11T18:26:59.327Z,29.13
2022-12-11T18:29:26.454Z,27.47
2022-12-11T18:31:53.376Z,24.87
2022-12-11T18:34:22.900Z,26.43
2022-12-11T18:36:49.673Z,26.50
2022-12-11T18:39:16.525Z,26.80
2022-12-11T18:41:43.330Z,26.57
2022-12-11T18:44:10.380Z,25.33
2022-12-11T18:46:37.521Z,26.00
2022-12-11T18:49:04.386Z,28.17
2022-12-11T18:51:31.125Z,27.50
2022-12-11T18:53:58.096Z,28.60
2022-12-11T18:56:25.068Z,27.50
2022-12-11T18:58:52.305Z,25.80
2022-12-11T19:01:25.308Z,27.30
2022-12-11T19:03:58.827Z,26.10
2022-12-11T19:06:30.427Z,29.67
2022-12-11T19:08:57.689Z,28.07
2022-12-11T19:11:26.572Z,25.83
2022-12-11T19:13:56.740Z,22.57
2022-12-11T19:16:30.606Z,26.37
2022-12-11T19:19:03.682Z,26.57
2022-12-11T19:21:31.771Z,25.97
2022-12-11T19:23:59.608Z,26.80
2022-12-11T19:26:26.672Z,28.20
2022-12-11T19:28:54.142Z,26.97
2022-12-11T19:31:23.368Z,25.83
2022-12-11T19:33:50.941Z,25.53
2022-12-11T19:36:21.415Z,26.60
2022-12-11T19:38:49.151Z,26.23
2022-12-11T19:41:21.972Z,26.40
2022-12-11T19:43:49.839Z,25.80
2022-12-11T19:46:18.201Z,26.83
2022-12-11T19:48:45.386Z,25.57
2022-12-11T19:51:22.166Z,26.90
2022-12-11T19:53:49.722Z,25.70
2022-12-11T19:56:17.837Z,27.23
2022-12-11T19:58:45.071Z,25.93
2022-12-11T20:01:30.302Z,25.73
2022-12-11T20:04:00.110Z,26.30
2022-12-11T20:06:35.563Z,25.43
2022-12-11T20:09:03.763Z,25.27
2022-12-11T20:11:32.643Z,25.73
2022-12-11T20:13:59.957Z,26.10
2022-12-11T20:16:46.361Z,26.07
2022-12-11T20:19:14.103Z,25.60
2022-12-11T20:21:41.046Z,26.43
2022-12-11T20:24:08.809Z,25.77
2022-12-11T20:26:37.004Z,26.63
2022-12-11T20:29:07.364Z,26.37
2022-12-11T20:31:36.498Z,25.30
2022-12-11T20:34:04.266Z,24.67
2022-12-11T20:36:31.359Z,25.97
2022-12-11T20:38:58.761Z,26.53
2022-12-11T20:41:26.077Z,25.13
2022-12-11T20:43:54.205Z,24.60
2022-12-11T20:46:25.103Z,25.17
2022-12-11T20:48:52.692Z,26.00
2022-12-11T20:51:25.841Z,26.30
2022-12-11T20:54:01.161Z,26.67
2022-12-11T20:56:31.038Z,25.73
2022-12-11T20:58:59.182Z,25.33
2022-12-11T21:01:29.808Z,27.97
2022-12-11T21:03:57.153Z,24.97
2022-12-11T21:06:28.539Z,25.67
2022-12-11T21:08:55.466Z,29.47
2022-12-11T21:11:22.705Z,26.13
2022-12-11T21:13:49.815Z,26.07
2022-12-11T21:16:16.679Z,25.00
2022-12-11T21:18:44.309Z,24.47
2022-12-11T21:21:11.078Z,22.97
2022-12-11T21:23:37.832Z,21.87
2022-12-11T21:26:04.908Z,25.93
2022-12-11T21:28:35.535Z,25.03
2022-12-11T21:31:05.671Z,24.57
2022-12-11T21:33:32.747Z,21.83
2022-12-11T21:36:01.083Z,20.27
2022-12-11T21:38:28.756Z,27.13
2022-12-11T21:40:56.361Z,26.20
2022-12-11T21:43:24.160Z,25.13
2022-12-11T21:46:07.037Z,23.53
2022-12-11T21:48:33.949Z,22.40
2022-12-11T21:51:19.102Z,25.67
2022-12-11T21:53:46.139Z,25.60
2022-12-11T21:56:17.952Z,23.80
2022-12-11T21:58:46.473Z,24.83
2022-12-11T22:01:26.812Z,23.73
2022-12-11T22:03:53.908Z,23.33
2022-12-11T22:06:21.203Z,23.47
2022-12-11T22:08:49.178Z,21.50
2022-12-11T22:11:21.544Z,24.10
2022-12-11T22:13:48.498Z,25.70
2022-12-11T22:16:15.389Z,26.90
2022-12-11T22:18:42.262Z,24.93
2022-12-11T22:21:09.069Z,24.10
2022-12-11T22:23:38.210Z,20.97
2022-12-11T22:26:06.177Z,20.77
2022-12-11T22:28:33.021Z,21.27
2022-12-11T22:31:00.397Z,22.27
2022-12-11T22:33:27.285Z,21.13
2022-12-11T22:35:58.553Z,22.83
2022-12-11T22:38:25.849Z,22.03
2022-12-11T22:40:53.384Z,24.67
2022-12-11T22:43:20.807Z,23.87
2022-12-11T22:45:47.509Z,23.83
2022-12-11T22:48:14.313Z,23.70
2022-12-11T22:50:41.600Z,22.97
2022-12-11T22:53:08.458Z,23.37
2022-12-11T22:55:38.741Z,24.27
2022-12-11T22:58:05.587Z,24.30
2022-12-11T23:00:32.508Z,23.43
2022-12-11T23:02:59.278Z,23.73
2022-12-11T23:05:26.063Z,24.30
2022-12-11T23:07:52.968Z,25.10
2022-12-11T23:10:19.885Z,25.00
2022-12-11T23:12:46.623Z,25.53
2022-12-11T23:15:13.680Z,25.43
2022-12-11T23:17:40.535Z,23.47
2022-12-11T23:20:07.727Z,26.70
2022-12-11T23:22:34.571Z,24.23
2022-12-11T23:25:01.510Z,25.90
2022-12-11T23:27:28.223Z,24.93
2022-12-11T23:29:55.236Z,25.27
2022-12-11T23:32:22.618Z,23.20
2022-12-11T23:34:49.311Z,23.83
2022-12-11T23:37:16.075Z,25.13
2022-12-11T23:39:42.802Z,24.67
2022-12-11T23:42:09.596Z,23.83
2022-12-11T23:44:36.394Z,25.00
2022-12-11T23:47:03.300Z,23.93
2022-12-11T23:49:30.248Z,24.10
2022-12-11T23:51:57.124Z,23.40
2022-12-11T23:54:24.003Z,23.23
2022-12-11T23:56:50.781Z,22.33
2022-12-11T23:59:17.573Z,21.90
